sensor_id;sensor_type;location;lat;lon;timestamp;temperature;humidity
23703;DHT22;12030;50.376;8.762;2023-04-06T00:00:06;0.20;99.90
23703;DHT22;12030;50.376;8.762;2023-04-06T00:02:34;0.20;99.90
23703;DHT22;12030;50.376;8.762;2023-04-06T00:04:59;0.20;99.90
23703;DHT22;12030;50.376;8.762;2023-04-06T00:07:25;0.20;99.90
23703;DHT22;12030;50.376;8.762;2023-04-06T00:09:51;0.20;99.90
23703;DHT22;12030;50.376;8.762;2023-04-06T00:12:16;0.20;99.90
23703;DHT22;12030;50.376;8.762;2023-04-06T00:14:42;0.20;99.90
23703;DHT22;12030;50.376;8.762;2023-04-06T00:17:08;0.30;99.90
23703;DHT22;12030;50.376;8.762;2023-04-06T00:19:33;0.30;99.90
23703;DHT22;12030;50.376;8.762;2023-04-06T00:21:59;0.20;99.90
23703;DHT22;12030;50.376;8.762;2023-04-06T00:24:24;0.20;99.90
23703;DHT22;12030;50.376;8.762;2023-04-06T00:26:50;0.10;99.90
23703;DHT22;12030;50.376;8.762;2023-04-06T00:29:15;0.10;99.90
23703;DHT22;12030;50.376;8.762;2023-04-06T00:31:41;0.10;99.90
23703;DHT22;12030;50.376;8.762;2023-04-06T00:34:07;0.10;99.90
23703;DHT22;12030;50.376;8.762;2023-04-06T00:36:32;0.10;99.90
23703;DHT22;12030;50.376;8.762;2023-04-06T00:38:58;0.20;99.90
23703;DHT22;12030;50.376;8.762;2023-04-06T00:41:23;0.10;99.90
23703;DHT22;12030;50.376;8.762;2023-04-06T00:43:49;0.00;99.90
23703;DHT22;12030;50.376;8.762;2023-04-06T00:46:14;0.00;99.90
23703;DHT22;12030;50.376;8.762;2023-04-06T00:48:40;0.00;99.90
23703;DHT22;12030;50.376;8.762;2023-04-06T00:51:06;-0.10;99.90
23703;DHT22;12030;50.376;8.762;2023-04-06T00:53:31;-0.10;99.90
23703;DHT22;12030;50.376;8.762;2023-04-06T00:55:57;-0.10;99.90
23703;DHT22;12030;50.376;8.762;2023-04-06T00:58:23;-0.10;99.90
23703;DHT22;12030;50.376;8.762;2023-04-06T01:00:50;0.00;99.90
23703;DHT22;12030;50.376;8.762;2023-04-06T01:03:15;0.00;99.90
23703;DHT22;12030;50.376;8.762;2023-04-06T01:05:41;0.00;99.90
23703;DHT22;12030;50.376;8.762;2023-04-06T01:08:07;-0.10;99.90
23703;DHT22;12030;50.376;8.762;2023-04-06T01:10:33;-0.20;99.90
23703;DHT22;12030;50.376;8.762;2023-04-06T01:12:59;-0.20;99.90
23703;DHT22;12030;50.376;8.762;2023-04-06T01:15:25;-0.10;99.90
23703;DHT22;12030;50.376;8.762;2023-04-06T01:17:51;-0.10;99.90
23703;DHT22;12030;50.376;8.762;2023-04-06T01:20:16;0.00;99.90
23703;DHT22;12030;50.376;8.762;2023-04-06T01:22:42;0.00;99.90
23703;DHT22;12030;50.376;8.762;2023-04-06T01:25:08;0.00;99.90
23703;DHT22;12030;50.376;8.762;2023-04-06T01:27:34;0.00;99.90
23703;DHT22;12030;50.376;8.762;2023-04-06T01:30:00;-0.20;99.90
23703;DHT22;12030;50.376;8.762;2023-04-06T01:32:25;-0.30;99.90
23703;DHT22;12030;50.376;8.762;2023-04-06T01:34:51;-0.40;99.90
23703;DHT22;12030;50.376;8.762;2023-04-06T01:37:16;-0.50;99.90
23703;DHT22;12030;50.376;8.762;2023-04-06T01:39:43;-0.60;99.90
23703;DHT22;12030;50.376;8.762;2023-04-06T01:42:08;-0.50;99.90
23703;DHT22;12030;50.376;8.762;2023-04-06T01:44:34;-0.50;99.90
23703;DHT22;12030;50.376;8.762;2023-04-06T01:46:59;-0.40;99.90
23703;DHT22;12030;50.376;8.762;2023-04-06T01:49:25;-0.40;99.90
23703;DHT22;12030;50.376;8.762;2023-04-06T01:51:51;-0.50;99.90
23703;DHT22;12030;50.376;8.762;2023-04-06T01:54:17;-0.50;99.90
23703;DHT22;12030;50.376;8.762;2023-04-06T01:56:43;-0.60;99.90
23703;DHT22;12030;50.376;8.762;2023-04-06T01:59:08;-0.70;99.90
23703;DHT22;12030;50.376;8.762;2023-04-06T02:01:34;-0.50;99.90
23703;DHT22;12030;50.376;8.762;2023-04-06T02:03:59;-0.50;99.90
23703;DHT22;12030;50.376;8.762;2023-04-06T02:06:25;-0.50;99.90
23703;DHT22;12030;50.376;8.762;2023-04-06T02:08:52;-0.60;99.90
23703;DHT22;12030;50.376;8.762;2023-04-06T02:11:17;-0.60;99.90
23703;DHT22;12030;50.376;8.762;2023-04-06T02:13:43;-0.60;99.90
23703;DHT22;12030;50.376;8.762;2023-04-06T02:16:08;-0.60;99.90
23703;DHT22;12030;50.376;8.762;2023-04-06T02:18:34;-0.70;99.90
23703;DHT22;12030;50.376;8.762;2023-04-06T02:20:59;-0.60;99.90
23703;DHT22;12030;50.376;8.762;2023-04-06T02:23:25;-0.50;99.90
23703;DHT22;12030;50.376;8.762;2023-04-06T02:25:51;-0.50;99.90
23703;DHT22;12030;50.376;8.762;2023-04-06T02:28:17;-0.50;99.90
23703;DHT22;12030;50.376;8.762;2023-04-06T02:30:42;-0.60;99.90
23703;DHT22;12030;50.376;8.762;2023-04-06T02:33:08;-0.70;99.90
23703;DHT22;12030;50.376;8.762;2023-04-06T02:35:34;-0.80;99.90
23703;DHT22;12030;50.376;8.762;2023-04-06T02:37:59;-0.80;99.90
23703;DHT22;12030;50.376;8.762;2023-04-06T02:40:25;-0.90;99.90
23703;DHT22;12030;50.376;8.762;2023-04-06T02:42:50;-0.90;99.90
23703;DHT22;12030;50.376;8.762;2023-04-06T02:45:16;-0.90;99.90
23703;DHT22;12030;50.376;8.762;2023-04-06T02:47:42;-0.80;99.90
23703;DHT22;12030;50.376;8.762;2023-04-06T02:50:07;-0.80;99.90
23703;DHT22;12030;50.376;8.762;2023-04-06T02:52:33;-0.70;99.90
23703;DHT22;12030;50.376;8.762;2023-04-06T02:54:58;-0.70;99.90
23703;DHT22;12030;50.376;8.762;2023-04-06T02:57:24;-0.70;99.90
23703;DHT22;12030;50.376;8.762;2023-04-06T02:59:49;-0.80;99.90
23703;DHT22;12030;50.376;8.762;2023-04-06T03:02:15;-0.80;99.90
23703;DHT22;12030;50.376;8.762;2023-04-06T03:04:42;-0.90;99.90
23703;DHT22;12030;50.376;8.762;2023-04-06T03:07:08;-1.00;99.90
23703;DHT22;12030;50.376;8.762;2023-04-06T03:09:34;-1.00;99.90
23703;DHT22;12030;50.376;8.762;2023-04-06T03:12:00;-1.10;99.90
23703;DHT22;12030;50.376;8.762;2023-04-06T03:14:27;-1.10;99.90
23703;DHT22;12030;50.376;8.762;2023-04-06T03:16:52;-1.10;99.90
23703;DHT22;12030;50.376;8.762;2023-04-06T03:19:18;-1.00;99.90
23703;DHT22;12030;50.376;8.762;2023-04-06T03:21:43;-1.10;99.90
23703;DHT22;12030;50.376;8.762;2023-04-06T03:24:09;-1.10;99.90
23703;DHT22;12030;50.376;8.762;2023-04-06T03:26:34;-1.20;99.90
23703;DHT22;12030;50.376;8.762;2023-04-06T03:29:00;-1.20;99.90
23703;DHT22;12030;50.376;8.762;2023-04-06T03:31:26;-1.20;99.90
23703;DHT22;12030;50.376;8.762;2023-04-06T03:33:51;-1.10;99.90
23703;DHT22;12030;50.376;8.762;2023-04-06T03:36:17;-1.10;99.90
23703;DHT22;12030;50.376;8.762;2023-04-06T03:38:42;-1.20;99.90
23703;DHT22;12030;50.376;8.762;2023-04-06T03:41:08;-1.20;99.90
23703;DHT22;12030;50.376;8.762;2023-04-06T03:43:33;-1.20;99.90
23703;DHT22;12030;50.376;8.762;2023-04-06T03:45:59;-1.10;99.90
23703;DHT22;12030;50.376;8.762;2023-04-06T03:48:25;-1.00;99.90
23703;DHT22;12030;50.376;8.762;2023-04-06T03:50:50;-1.00;99.90
23703;DHT22;12030;50.376;8.762;2023-04-06T03:53:16;-1.00;99.90
23703;DHT22;12030;50.376;8.762;2023-04-06T03:55:41;-1.20;99.90
23703;DHT22;12030;50.376;8.762;2023-04-06T03:58:07;-1.20;99.90
23703;DHT22;12030;50.376;8.762;2023-04-06T04:00:32;-1.30;99.90
23703;DHT22;12030;50.376;8.762;2023-04-06T04:02:58;-1.30;99.90
23703;DHT22;12030;50.376;8.762;2023-04-06T04:05:24;-1.40;99.90
23703;DHT22;12030;50.376;8.762;2023-04-06T04:07:51;-1.30;99.90
23703;DHT22;12030;50.376;8.762;2023-04-06T04:10:17;-1.10;99.90
23703;DHT22;12030;50.376;8.762;2023-04-06T04:12:42;-1.10;99.90
23703;DHT22;12030;50.376;8.762;2023-04-06T04:15:08;-1.20;99.90
23703;DHT22;12030;50.376;8.762;2023-04-06T04:17:34;-1.40;99.90
23703;DHT22;12030;50.376;8.762;2023-04-06T04:20:00;-1.50;99.90
23703;DHT22;12030;50.376;8.762;2023-04-06T04:22:25;-1.50;99.90
23703;DHT22;12030;50.376;8.762;2023-04-06T04:24:53;-1.50;99.90
23703;DHT22;12030;50.376;8.762;2023-04-06T04:27:18;-1.40;99.90
23703;DHT22;12030;50.376;8.762;2023-04-06T04:29:44;-1.50;99.90
23703;DHT22;12030;50.376;8.762;2023-04-06T04:32:09;-1.40;99.90
23703;DHT22;12030;50.376;8.762;2023-04-06T04:34:35;-1.60;99.90
23703;DHT22;12030;50.376;8.762;2023-04-06T04:37:01;-1.60;99.90
23703;DHT22;12030;50.376;8.762;2023-04-06T04:39:26;-1.60;99.90
23703;DHT22;12030;50.376;8.762;2023-04-06T04:41:52;-1.60;99.90
23703;DHT22;12030;50.376;8.762;2023-04-06T04:44:18;-1.60;99.90
23703;DHT22;12030;50.376;8.762;2023-04-06T04:46:44;-1.50;99.90
23703;DHT22;12030;50.376;8.762;2023-04-06T04:49:10;-1.40;99.90
23703;DHT22;12030;50.376;8.762;2023-04-06T04:51:35;-1.40;99.90
23703;DHT22;12030;50.376;8.762;2023-04-06T04:54:01;-1.30;99.90
23703;DHT22;12030;50.376;8.762;2023-04-06T04:56:27;-1.30;99.90
23703;DHT22;12030;50.376;8.762;2023-04-06T04:58:52;-1.30;99.90
23703;DHT22;12030;50.376;8.762;2023-04-06T05:01:18;-1.50;99.90
23703;DHT22;12030;50.376;8.762;2023-04-06T05:03:43;-1.50;99.90
23703;DHT22;12030;50.376;8.762;2023-04-06T05:06:09;-1.50;99.90
23703;DHT22;12030;50.376;8.762;2023-04-06T05:08:34;-1.40;99.90
23703;DHT22;12030;50.376;8.762;2023-04-06T05:11:00;-1.40;99.90
23703;DHT22;12030;50.376;8.762;2023-04-06T05:13:25;-1.40;99.90
23703;DHT22;12030;50.376;8.762;2023-04-06T05:15:51;-1.30;99.90
23703;DHT22;12030;50.376;8.762;2023-04-06T05:18:17;-1.40;99.90
23703;DHT22;12030;50.376;8.762;2023-04-06T05:20:42;-1.40;99.90
23703;DHT22;12030;50.376;8.762;2023-04-06T05:23:08;-1.40;99.90
23703;DHT22;12030;50.376;8.762;2023-04-06T05:25:34;-1.40;99.90
23703;DHT22;12030;50.376;8.762;2023-04-06T05:27:59;-1.40;99.90
23703;DHT22;12030;50.376;8.762;2023-04-06T05:30:25;-1.30;99.90
23703;DHT22;12030;50.376;8.762;2023-04-06T05:32:51;-1.20;99.90
23703;DHT22;12030;50.376;8.762;2023-04-06T05:35:16;-1.20;99.90
23703;DHT22;12030;50.376;8.762;2023-04-06T05:37:43;-1.20;99.90
23703;DHT22;12030;50.376;8.762;2023-04-06T05:40:08;-1.20;99.90
23703;DHT22;12030;50.376;8.762;2023-04-06T05:42:38;-1.10;99.90
23703;DHT22;12030;50.376;8.762;2023-04-06T05:45:05;-1.10;99.90
23703;DHT22;12030;50.376;8.762;2023-04-06T05:47:31;-1.10;99.90
23703;DHT22;12030;50.376;8.762;2023-04-06T05:49:56;-1.00;99.90
23703;DHT22;12030;50.376;8.762;2023-04-06T05:52:22;-0.90;99.90
23703;DHT22;12030;50.376;8.762;2023-04-06T05:54:47;-0.90;99.90
23703;DHT22;12030;50.376;8.762;2023-04-06T05:57:13;-0.80;99.90
23703;DHT22;12030;50.376;8.762;2023-04-06T05:59:38;-0.80;99.90
23703;DHT22;12030;50.376;8.762;2023-04-06T06:02:04;-0.70;99.90
23703;DHT22;12030;50.376;8.762;2023-04-06T06:04:30;-0.60;99.90
23703;DHT22;12030;50.376;8.762;2023-04-06T06:06:56;-0.60;99.90
23703;DHT22;12030;50.376;8.762;2023-04-06T06:09:22;-0.50;99.90
23703;DHT22;12030;50.376;8.762;2023-04-06T06:11:48;-0.50;99.90
23703;DHT22;12030;50.376;8.762;2023-04-06T06:14:14;-0.40;99.90
23703;DHT22;12030;50.376;8.762;2023-04-06T06:16:40;-0.30;99.90
23703;DHT22;12030;50.376;8.762;2023-04-06T06:19:06;-0.10;99.90
23703;DHT22;12030;50.376;8.762;2023-04-06T06:21:31;0.10;99.90
23703;DHT22;12030;50.376;8.762;2023-04-06T06:23:57;0.10;99.90
23703;DHT22;12030;50.376;8.762;2023-04-06T06:26:22;0.40;99.90
23703;DHT22;12030;50.376;8.762;2023-04-06T06:28:48;0.50;99.90
23703;DHT22;12030;50.376;8.762;2023-04-06T06:31:14;0.60;99.90
23703;DHT22;12030;50.376;8.762;2023-04-06T06:33:39;0.70;99.90
23703;DHT22;12030;50.376;8.762;2023-04-06T06:36:05;0.90;99.90
23703;DHT22;12030;50.376;8.762;2023-04-06T06:38:31;0.90;99.90
23703;DHT22;12030;50.376;8.762;2023-04-06T06:40:56;1.00;99.90
23703;DHT22;12030;50.376;8.762;2023-04-06T06:43:22;1.10;99.90
23703;DHT22;12030;50.376;8.762;2023-04-06T06:45:47;1.20;99.90
23703;DHT22;12030;50.376;8.762;2023-04-06T06:48:13;1.40;99.90
23703;DHT22;12030;50.376;8.762;2023-04-06T06:50:38;1.50;99.90
23703;DHT22;12030;50.376;8.762;2023-04-06T06:53:04;1.60;99.90
23703;DHT22;12030;50.376;8.762;2023-04-06T06:55:30;1.70;99.90
23703;DHT22;12030;50.376;8.762;2023-04-06T06:57:55;1.80;99.90
23703;DHT22;12030;50.376;8.762;2023-04-06T07:00:21;1.90;99.90
23703;DHT22;12030;50.376;8.762;2023-04-06T07:02:47;2.00;99.90
23703;DHT22;12030;50.376;8.762;2023-04-06T07:05:13;2.10;99.90
23703;DHT22;12030;50.376;8.762;2023-04-06T07:07:39;2.20;99.90
23703;DHT22;12030;50.376;8.762;2023-04-06T07:10:05;2.20;99.90
23703;DHT22;12030;50.376;8.762;2023-04-06T07:12:30;2.40;99.90
23703;DHT22;12030;50.376;8.762;2023-04-06T07:14:56;2.50;99.90
23703;DHT22;12030;50.376;8.762;2023-04-06T07:17:21;2.60;99.90
23703;DHT22;12030;50.376;8.762;2023-04-06T07:19:47;2.70;99.90
23703;DHT22;12030;50.376;8.762;2023-04-06T07:22:12;2.80;99.90
23703;DHT22;12030;50.376;8.762;2023-04-06T07:24:38;3.00;99.90
23703;DHT22;12030;50.376;8.762;2023-04-06T07:27:03;3.10;99.90
23703;DHT22;12030;50.376;8.762;2023-04-06T07:29:29;3.20;99.90
23703;DHT22;12030;50.376;8.762;2023-04-06T07:31:55;3.30;99.90
23703;DHT22;12030;50.376;8.762;2023-04-06T07:34:21;3.40;99.90
23703;DHT22;12030;50.376;8.762;2023-04-06T07:36:47;3.50;99.90
23703;DHT22;12030;50.376;8.762;2023-04-06T07:39:13;3.60;99.90
23703;DHT22;12030;50.376;8.762;2023-04-06T07:41:38;3.70;99.90
23703;DHT22;12030;50.376;8.762;2023-04-06T07:44:04;3.80;99.90
23703;DHT22;12030;50.376;8.762;2023-04-06T07:46:30;4.00;99.90
23703;DHT22;12030;50.376;8.762;2023-04-06T07:48:57;4.10;99.90
23703;DHT22;12030;50.376;8.762;2023-04-06T07:51:23;4.10;99.90
23703;DHT22;12030;50.376;8.762;2023-04-06T07:53:50;4.30;99.90
23703;DHT22;12030;50.376;8.762;2023-04-06T07:56:15;4.40;99.90
23703;DHT22;12030;50.376;8.762;2023-04-06T07:58:41;4.50;99.90
23703;DHT22;12030;50.376;8.762;2023-04-06T08:01:06;4.60;99.90
23703;DHT22;12030;50.376;8.762;2023-04-06T08:03:34;4.80;99.90
23703;DHT22;12030;50.376;8.762;2023-04-06T08:06:00;4.80;99.90
23703;DHT22;12030;50.376;8.762;2023-04-06T08:08:25;5.00;99.90
23703;DHT22;12030;50.376;8.762;2023-04-06T08:10:51;5.10;99.90
23703;DHT22;12030;50.376;8.762;2023-04-06T08:13:16;5.20;99.90
23703;DHT22;12030;50.376;8.762;2023-04-06T08:15:42;5.40;99.90
23703;DHT22;12030;50.376;8.762;2023-04-06T08:18:08;5.60;99.90
23703;DHT22;12030;50.376;8.762;2023-04-06T08:20:34;5.80;99.90
23703;DHT22;12030;50.376;8.762;2023-04-06T08:23:00;5.90;99.90
23703;DHT22;12030;50.376;8.762;2023-04-06T08:25:25;6.00;99.90
23703;DHT22;12030;50.376;8.762;2023-04-06T08:27:51;6.10;99.90
23703;DHT22;12030;50.376;8.762;2023-04-06T08:30:17;6.30;99.90
23703;DHT22;12030;50.376;8.762;2023-04-06T08:32:44;6.30;99.90
23703;DHT22;12030;50.376;8.762;2023-04-06T08:35:10;6.50;99.90
23703;DHT22;12030;50.376;8.762;2023-04-06T08:37:36;6.70;99.90
23703;DHT22;12030;50.376;8.762;2023-04-06T08:40:01;6.80;99.90
23703;DHT22;12030;50.376;8.762;2023-04-06T08:42:32;6.80;99.90
23703;DHT22;12030;50.376;8.762;2023-04-06T08:44:59;6.90;99.90
23703;DHT22;12030;50.376;8.762;2023-04-06T08:47:25;7.00;99.90
23703;DHT22;12030;50.376;8.762;2023-04-06T08:49:52;7.10;99.90
23703;DHT22;12030;50.376;8.762;2023-04-06T08:52:18;7.20;99.90
23703;DHT22;12030;50.376;8.762;2023-04-06T08:54:44;7.40;99.90
23703;DHT22;12030;50.376;8.762;2023-04-06T08:57:10;7.60;99.90
23703;DHT22;12030;50.376;8.762;2023-04-06T08:59:37;7.60;99.90
23703;DHT22;12030;50.376;8.762;2023-04-06T09:02:04;7.70;99.90
23703;DHT22;12030;50.376;8.762;2023-04-06T09:04:33;7.80;99.40
23703;DHT22;12030;50.376;8.762;2023-04-06T09:07:00;7.80;99.70
23703;DHT22;12030;50.376;8.762;2023-04-06T09:09:26;8.00;99.80
23703;DHT22;12030;50.376;8.762;2023-04-06T09:11:52;8.00;98.00
23703;DHT22;12030;50.376;8.762;2023-04-06T09:14:36;8.10;98.20
23703;DHT22;12030;50.376;8.762;2023-04-06T09:17:02;8.20;97.80
23703;DHT22;12030;50.376;8.762;2023-04-06T09:19:28;8.20;97.40
23703;DHT22;12030;50.376;8.762;2023-04-06T09:22:04;8.30;97.10
23703;DHT22;12030;50.376;8.762;2023-04-06T09:24:40;8.40;98.10
23703;DHT22;12030;50.376;8.762;2023-04-06T09:27:05;8.50;97.20
23703;DHT22;12030;50.376;8.762;2023-04-06T09:29:31;8.50;97.40
23703;DHT22;12030;50.376;8.762;2023-04-06T09:32:04;8.70;97.40
23703;DHT22;12030;50.376;8.762;2023-04-06T09:34:31;8.80;97.20
23703;DHT22;12030;50.376;8.762;2023-04-06T09:36:56;9.00;96.80
23703;DHT22;12030;50.376;8.762;2023-04-06T09:39:22;9.10;96.10
23703;DHT22;12030;50.376;8.762;2023-04-06T09:41:50;9.10;95.90
23703;DHT22;12030;50.376;8.762;2023-04-06T09:44:16;9.20;96.60
23703;DHT22;12030;50.376;8.762;2023-04-06T09:46:42;9.30;95.40
23703;DHT22;12030;50.376;8.762;2023-04-06T09:49:10;9.40;96.00
23703;DHT22;12030;50.376;8.762;2023-04-06T09:51:41;9.50;95.80
23703;DHT22;12030;50.376;8.762;2023-04-06T09:54:09;9.60;95.30
23703;DHT22;12030;50.376;8.762;2023-04-06T09:56:45;9.70;95.10
23703;DHT22;12030;50.376;8.762;2023-04-06T10:02:05;9.70;95.50
23703;DHT22;12030;50.376;8.762;2023-04-06T10:04:41;9.90;95.20
23703;DHT22;12030;50.376;8.762;2023-04-06T10:07:09;10.00;94.00
23703;DHT22;12030;50.376;8.762;2023-04-06T10:09:37;10.20;94.10
23703;DHT22;12030;50.376;8.762;2023-04-06T10:12:05;10.20;93.70
23703;DHT22;12030;50.376;8.762;2023-04-06T10:14:33;10.10;93.00
23703;DHT22;12030;50.376;8.762;2023-04-06T10:17:02;10.30;94.20
23703;DHT22;12030;50.376;8.762;2023-04-06T10:19:42;10.50;93.80
23703;DHT22;12030;50.376;8.762;2023-04-06T10:22:12;10.50;93.20
23703;DHT22;12030;50.376;8.762;2023-04-06T10:24:39;10.70;93.10
23703;DHT22;12030;50.376;8.762;2023-04-06T10:27:06;10.70;93.30
23703;DHT22;12030;50.376;8.762;2023-04-06T10:29:45;10.90;94.00
23703;DHT22;12030;50.376;8.762;2023-04-06T10:32:11;10.90;92.10
23703;DHT22;12030;50.376;8.762;2023-04-06T10:34:37;10.90;92.60
23703;DHT22;12030;50.376;8.762;2023-04-06T10:37:15;11.00;92.50
23703;DHT22;12030;50.376;8.762;2023-04-06T10:39:52;11.10;92.40
23703;DHT22;12030;50.376;8.762;2023-04-06T10:42:24;11.10;91.50
23703;DHT22;12030;50.376;8.762;2023-04-06T10:44:51;11.20;92.50
23703;DHT22;12030;50.376;8.762;2023-04-06T10:47:17;11.30;92.30
23703;DHT22;12030;50.376;8.762;2023-04-06T10:49:43;11.50;91.20
23703;DHT22;12030;50.376;8.762;2023-04-06T10:52:09;11.60;91.60
23703;DHT22;12030;50.376;8.762;2023-04-06T10:54:41;11.60;91.00
23703;DHT22;12030;50.376;8.762;2023-04-06T10:57:06;11.70;92.00
23703;DHT22;12030;50.376;8.762;2023-04-06T10:59:32;11.80;92.10
23703;DHT22;12030;50.376;8.762;2023-04-06T11:01:57;11.90;91.90
23703;DHT22;12030;50.376;8.762;2023-04-06T11:04:25;12.00;91.20
23703;DHT22;12030;50.376;8.762;2023-04-06T11:06:50;12.00;90.90
23703;DHT22;12030;50.376;8.762;2023-04-06T11:09:34;12.00;89.50
23703;DHT22;12030;50.376;8.762;2023-04-06T11:12:01;12.10;90.50
23703;DHT22;12030;50.376;8.762;2023-04-06T11:14:27;12.30;90.80
23703;DHT22;12030;50.376;8.762;2023-04-06T11:16:52;12.40;90.10
23703;DHT22;12030;50.376;8.762;2023-04-06T11:19:18;12.60;90.00
23703;DHT22;12030;50.376;8.762;2023-04-06T11:21:48;12.70;86.70
23703;DHT22;12030;50.376;8.762;2023-04-06T11:24:17;12.60;87.90
23703;DHT22;12030;50.376;8.762;2023-04-06T11:26:45;12.70;86.20
23703;DHT22;12030;50.376;8.762;2023-04-06T11:29:12;12.70;85.50
23703;DHT22;12030;50.376;8.762;2023-04-06T11:31:54;12.90;90.90
23703;DHT22;12030;50.376;8.762;2023-04-06T11:34:23;12.90;85.70
23703;DHT22;12030;50.376;8.762;2023-04-06T11:37:01;13.00;87.30
23703;DHT22;12030;50.376;8.762;2023-04-06T11:39:28;13.10;86.70
23703;DHT22;12030;50.376;8.762;2023-04-06T11:41:57;13.10;88.00
23703;DHT22;12030;50.376;8.762;2023-04-06T11:46:57;13.50;85.60
23703;DHT22;12030;50.376;8.762;2023-04-06T11:49:29;13.60;82.70
23703;DHT22;12030;50.376;8.762;2023-04-06T11:51:56;13.60;83.80
23703;DHT22;12030;50.376;8.762;2023-04-06T11:54:34;13.60;84.90
23703;DHT22;12030;50.376;8.762;2023-04-06T11:57:00;13.60;84.30
23703;DHT22;12030;50.376;8.762;2023-04-06T11:59:26;13.60;83.30
23703;DHT22;12030;50.376;8.762;2023-04-06T12:01:52;13.80;83.50
23703;DHT22;12030;50.376;8.762;2023-04-06T12:04:19;14.00;86.00
23703;DHT22;12030;50.376;8.762;2023-04-06T12:06:44;14.20;83.60
23703;DHT22;12030;50.376;8.762;2023-04-06T12:09:10;14.30;79.10
23703;DHT22;12030;50.376;8.762;2023-04-06T12:11:35;14.20;77.80
23703;DHT22;12030;50.376;8.762;2023-04-06T12:14:01;14.30;79.70
23703;DHT22;12030;50.376;8.762;2023-04-06T12:16:30;14.20;81.30
23703;DHT22;12030;50.376;8.762;2023-04-06T12:18:55;14.10;80.70
23703;DHT22;12030;50.376;8.762;2023-04-06T12:21:21;14.20;80.10
23703;DHT22;12030;50.376;8.762;2023-04-06T12:23:47;14.10;77.60
23703;DHT22;12030;50.376;8.762;2023-04-06T12:26:12;14.10;77.20
23703;DHT22;12030;50.376;8.762;2023-04-06T12:28:38;13.90;77.90
23703;DHT22;12030;50.376;8.762;2023-04-06T12:31:03;13.90;78.30
23703;DHT22;12030;50.376;8.762;2023-04-06T12:33:29;13.90;78.30
23703;DHT22;12030;50.376;8.762;2023-04-06T12:35:54;14.00;80.80
23703;DHT22;12030;50.376;8.762;2023-04-06T12:38:20;14.30;80.90
23703;DHT22;12030;50.376;8.762;2023-04-06T12:40:45;14.30;80.00
23703;DHT22;12030;50.376;8.762;2023-04-06T12:43:11;14.20;77.70
23703;DHT22;12030;50.376;8.762;2023-04-06T12:45:38;14.20;77.70
23703;DHT22;12030;50.376;8.762;2023-04-06T12:48:04;14.20;76.20
23703;DHT22;12030;50.376;8.762;2023-04-06T12:50:30;14.20;77.70
23703;DHT22;12030;50.376;8.762;2023-04-06T12:52:56;14.40;80.00
23703;DHT22;12030;50.376;8.762;2023-04-06T12:55:21;14.30;77.20
23703;DHT22;12030;50.376;8.762;2023-04-06T12:57:47;14.40;79.90
23703;DHT22;12030;50.376;8.762;2023-04-06T13:00:13;14.50;78.90
23703;DHT22;12030;50.376;8.762;2023-04-06T13:02:40;14.60;79.60
23703;DHT22;12030;50.376;8.762;2023-04-06T13:05:05;14.70;75.80
23703;DHT22;12030;50.376;8.762;2023-04-06T13:07:31;14.60;77.00
23703;DHT22;12030;50.376;8.762;2023-04-06T13:09:56;14.50;77.30
23703;DHT22;12030;50.376;8.762;2023-04-06T13:12:22;14.50;77.10
23703;DHT22;12030;50.376;8.762;2023-04-06T13:14:48;14.50;76.40
23703;DHT22;12030;50.376;8.762;2023-04-06T13:17:16;14.60;77.60
23703;DHT22;12030;50.376;8.762;2023-04-06T13:19:43;14.60;78.10
23703;DHT22;12030;50.376;8.762;2023-04-06T13:22:08;14.60;76.50
23703;DHT22;12030;50.376;8.762;2023-04-06T13:24:34;14.60;75.40
23703;DHT22;12030;50.376;8.762;2023-04-06T13:27:00;14.60;74.70
23703;DHT22;12030;50.376;8.762;2023-04-06T13:29:26;14.60;73.50
23703;DHT22;12030;50.376;8.762;2023-04-06T13:31:52;14.60;73.30
23703;DHT22;12030;50.376;8.762;2023-04-06T13:34:18;14.60;74.00
23703;DHT22;12030;50.376;8.762;2023-04-06T13:36:43;14.60;72.30
23703;DHT22;12030;50.376;8.762;2023-04-06T13:39:09;14.40;73.80
23703;DHT22;12030;50.376;8.762;2023-04-06T13:41:34;14.30;73.60
23703;DHT22;12030;50.376;8.762;2023-04-06T13:44:00;14.40;74.20
23703;DHT22;12030;50.376;8.762;2023-04-06T13:46:25;14.50;76.50
23703;DHT22;12030;50.376;8.762;2023-04-06T13:48:52;14.60;76.90
23703;DHT22;12030;50.376;8.762;2023-04-06T13:51:18;14.60;75.20
23703;DHT22;12030;50.376;8.762;2023-04-06T13:53:43;14.60;73.80
23703;DHT22;12030;50.376;8.762;2023-04-06T13:56:09;14.50;74.60
23703;DHT22;12030;50.376;8.762;2023-04-06T13:58:34;14.40;74.90
23703;DHT22;12030;50.376;8.762;2023-04-06T14:01:03;14.50;74.90
23703;DHT22;12030;50.376;8.762;2023-04-06T14:03:28;14.40;74.00
23703;DHT22;12030;50.376;8.762;2023-04-06T14:05:54;14.40;71.90
23703;DHT22;12030;50.376;8.762;2023-04-06T14:08:20;14.50;73.30
23703;DHT22;12030;50.376;8.762;2023-04-06T14:10:46;14.60;73.70
23703;DHT22;12030;50.376;8.762;2023-04-06T14:13:11;14.70;73.50
23703;DHT22;12030;50.376;8.762;2023-04-06T14:15:37;14.90;72.10
23703;DHT22;12030;50.376;8.762;2023-04-06T14:18:02;15.10;73.40
23703;DHT22;12030;50.376;8.762;2023-04-06T14:20:28;15.30;74.10
23703;DHT22;12030;50.376;8.762;2023-04-06T14:22:55;15.30;74.40
23703;DHT22;12030;50.376;8.762;2023-04-06T14:25:21;15.50;71.30
23703;DHT22;12030;50.376;8.762;2023-04-06T14:27:47;15.60;71.20
23703;DHT22;12030;50.376;8.762;2023-04-06T14:30:12;15.70;75.10
23703;DHT22;12030;50.376;8.762;2023-04-06T14:32:38;15.60;70.20
23703;DHT22;12030;50.376;8.762;2023-04-06T14:35:07;15.60;69.80
23703;DHT22;12030;50.376;8.762;2023-04-06T14:37:32;15.40;67.70
23703;DHT22;12030;50.376;8.762;2023-04-06T14:39:58;15.30;68.20
23703;DHT22;12030;50.376;8.762;2023-04-06T14:42:23;15.30;68.90
23703;DHT22;12030;50.376;8.762;2023-04-06T14:44:49;15.10;70.70
23703;DHT22;12030;50.376;8.762;2023-04-06T14:47:15;15.00;71.40
23703;DHT22;12030;50.376;8.762;2023-04-06T14:49:46;14.90;70.00
23703;DHT22;12030;50.376;8.762;2023-04-06T14:52:12;14.80;71.80
23703;DHT22;12030;50.376;8.762;2023-04-06T14:54:38;14.80;73.00
23703;DHT22;12030;50.376;8.762;2023-04-06T14:57:03;14.70;71.70
23703;DHT22;12030;50.376;8.762;2023-04-06T14:59:29;14.50;73.30
23703;DHT22;12030;50.376;8.762;2023-04-06T15:01:54;14.40;73.20
23703;DHT22;12030;50.376;8.762;2023-04-06T15:04:20;14.40;71.30
23703;DHT22;12030;50.376;8.762;2023-04-06T15:06:45;14.30;71.20
23703;DHT22;12030;50.376;8.762;2023-04-06T15:09:11;14.40;71.80
23703;DHT22;12030;50.376;8.762;2023-04-06T15:11:36;14.50;72.20
23703;DHT22;12030;50.376;8.762;2023-04-06T15:14:02;14.50;71.40
23703;DHT22;12030;50.376;8.762;2023-04-06T15:16:27;14.50;73.30
23703;DHT22;12030;50.376;8.762;2023-04-06T15:18:58;14.60;72.10
23703;DHT22;12030;50.376;8.762;2023-04-06T15:21:23;14.70;74.90
23703;DHT22;12030;50.376;8.762;2023-04-06T15:23:49;14.60;73.20
23703;DHT22;12030;50.376;8.762;2023-04-06T15:26:15;14.70;71.70
23703;DHT22;12030;50.376;8.762;2023-04-06T15:28:40;14.80;70.90
23703;DHT22;12030;50.376;8.762;2023-04-06T15:31:13;14.90;72.20
23703;DHT22;12030;50.376;8.762;2023-04-06T15:33:39;15.00;74.20